CST,Max TemperatureF,Mean TemperatureF,Min TemperatureF,Max Dew PointF,MeanDew PointF,Min DewpointF,Max Humidity, Mean Humidity, Min Humidity, Max Sea Level PressureIn, Mean Sea Level PressureIn, Min Sea Level PressureIn, Max VisibilityMiles, Mean VisibilityMiles, Min VisibilityMiles, Max Wind SpeedMPH, Mean Wind SpeedMPH, Max Gust SpeedMPH,PrecipitationIn, CloudCover, Events, WindDirDegrees
2013-12-1,21,19,17,19,17,16,100,91,86,30.16,30.07,29.94,10,7,2,9,5,,0.00,8,Snow,271
2013-12-2,23,19,15,19,18,12,100,90,86,29.93,29.83,29.79,10,10,4,18,7,24,0.00,8,Snow,58
2013-12-3,21,18,15,16,15,10,86,84,79,30.02,29.93,29.85,10,9,3,18,13,23,0.00,8,Snow,49
2013-12-4,15,12,10,10,8,7,92,86,79,30.02,29.84,29.62,10,4,1,18,11,25,0.00,8,Snow,37
2013-12-5,12,5,-4,9,1,-9,92,80,72,30.11,29.81,29.60,10,7,2,25,17,32,0.00,5,Snow,310
2013-12-6,0,-6,-11,-8,-11,-17,84,78,71,30.44,30.30,30.12,10,10,10,17,12,23,0.00,0,,280
2013-12-7,-5,-12,-18,-13,-19,-24,84,77,70,30.45,30.41,30.32,10,10,5,12,5,,0.00,2,,214
2013-12-8,1,-8,-18,-2,-14,-24,85,79,70,30.32,30.13,29.90,10,7,2,15,10,,0.00,4,Snow,180
2013-12-9,0,-7,-14,-6,-15,-20,85,78,70,29.90,29.82,29.78,10,9,3,15,7,,0.00,2,Snow,238
2013-12-10,-2,-10,-18,-9,-17,-22,84,77,66,30.19,29.91,29.76,10,9,2,16,4,22,0.00,1,Snow,289
2013-12-11,-2,-10,-18,-11,-19,-24,84,74,55,30.30,30.22,30.11,10,10,4,18,10,24,0.00,0,Snow,232
2013-12-12,0,-8,-16,-8,-15,-22,84,76,65,30.26,30.16,30.10,10,10,10,17,7,21,0.00,2,Snow,304
2013-12-13,-9,-12,-14,-17,-19,-22,77,69,54,30.41,30.36,30.27,10,10,10,10,7,,0.00,5,,16
2013-12-14,-4,-10,-16,-9,-14,-22,84,76,65,30.38,30.20,30.10,10,8,1,13,5,,0.00,5,Snow,3
2013-12-15,-5,-15,-25,-11,-22,-31,84,76,69,30.16,30.10,29.95,10,10,4,22,7,,0.00,2,Snow,254
2013-12-16,21,8,-5,16,6,-11,86,82,77,29.95,29.71,29.62,10,7,1,29,17,33,0.00,5,Snow,208
2013-12-17,21,7,-7,18,-1,-11,86,75,66,30.00,29.88,29.63,10,9,4,24,15,29,0.00,4,,301
2013-12-18,10,4,-2,7,-2,-9,85,76,67,29.94,29.73,29.57,10,9,2,25,8,18,0.00,4,Snow,90
2013-12-19,0,-6,-11,-6,-11,-17,85,77,71,30.24,30.15,29.96,10,10,10,17,10,,0.00,1,,316
2013-12-20,6,-2,-9,0,-5,-13,85,80,72,30.10,29.90,29.81,10,9,2,15,6,,0.00,2,Snow,204
2013-12-21,3,-2,-7,0,-8,-13,85,77,66,30.19,30.03,29.83,10,10,2,15,8,,0.00,2,Snow,17
2013-12-22,-2,-6,-11,-15,-16,-18,77,70,55,30.37,30.23,30.15,10,10,10,16,11,,0.00,3,,5
2013-12-23,-7,-14,-22,-18,-22,-27,84,74,59,30.50,30.43,30.32,10,10,10,9,6,,0.00,0,,322
2013-12-24,8,-5,-18,5,-11,-24,85,77,64,30.32,30.07,29.93,10,8,1,24,15,17,0.00,4,Snow,167
2013-12-25,10,2,-5,7,0,-9,92,79,67,30.04,30.01,29.93,10,9,2,20,8,28,0.00,6,Snow,308
2013-12-26,12,0,-11,9,-7,-17,92,83,77,30.09,30.04,29.93,10,10,7,17,3,,0.00,4,,160
2013-12-27,30,21,12,27,20,9,100,88,79,29.94,29.79,29.64,10,10,2,24,13,26,0.00,7,Snow,257
2013-12-28,19,2,-16,18,1,-24,93,82,70,30.34,30.04,29.84,10,5,0,25,13,32,0.00,6,Snow,2
2013-12-29,-11,-18,-25,-20,-26,-33,77,73,64,30.37,30.25,30.11,10,10,10,15,8,,0.00,0,,271
2013-12-30,-11,-18,-25,-20,-26,-33,84,75,64,30.19,30.13,30.09,10,10,7,7,2,,0.00,0,,284
2013-12-31,-16,-22,-27,-24,-30,-35,83,71,64,30.41,30.26,30.09,10,10,3,10,6,,0.00,0,,311